Terminal Aerodrome Forecast
Issued by NWS

Home | Current Version | Previous Version | Text Only | Print | Product List | Glossary On
Versions: 1 2 3 4 5 6 7 8 9 10 11 12 13 14 15 16 17
000
FTUS41 KBTV 271731
TAFRUT
TAF
KRUT 271731Z 2718/2818 33006KT P6SM FEW040
     FM280000 13008KT P6SM SCT200
     FM281500 17009KT P6SM SCT100 SCT250
      AMD LTD TO CLD VIS AND WIND=

USA.gov is the U.S. government's official web portal to all federal, state and local government web resources and services.